sensor_id;sensor_type;location;lat;lon;timestamp;P1;durP1;ratioP1;P2;durP2;ratioP2
14554;SDS011;7364;50.870;4.722;2023-04-24T00:02:00;16.57;;;9.07;;
14554;SDS011;7364;50.870;4.722;2023-04-24T00:04:33;13.03;;;9.93;;
14554;SDS011;7364;50.870;4.722;2023-04-24T00:07:00;13.47;;;10.30;;
14554;SDS011;7364;50.870;4.722;2023-04-24T00:09:28;19.80;;;10.70;;
14554;SDS011;7364;50.870;4.722;2023-04-24T00:11:55;18.30;;;10.60;;
14554;SDS011;7364;50.870;4.722;2023-04-24T00:14:22;17.23;;;10.03;;
14554;SDS011;7364;50.870;4.722;2023-04-24T00:16:50;11.93;;;9.60;;
14554;SDS011;7364;50.870;4.722;2023-04-24T00:19:17;17.47;;;9.67;;
14554;SDS011;7364;50.870;4.722;2023-04-24T00:21:48;16.00;;;10.97;;
14554;SDS011;7364;50.870;4.722;2023-04-24T00:24:15;18.23;;;10.60;;
14554;SDS011;7364;50.870;4.722;2023-04-24T00:26:43;15.77;;;11.17;;
14554;SDS011;7364;50.870;4.722;2023-04-24T00:29:11;15.00;;;11.17;;
14554;SDS011;7364;50.870;4.722;2023-04-24T00:31:39;12.70;;;10.23;;
14554;SDS011;7364;50.870;4.722;2023-04-24T00:34:07;19.07;;;10.43;;
14554;SDS011;7364;50.870;4.722;2023-04-24T00:36:35;16.43;;;10.97;;
14554;SDS011;7364;50.870;4.722;2023-04-24T00:39:04;14.57;;;9.80;;
14554;SDS011;7364;50.870;4.722;2023-04-24T00:41:34;12.70;;;10.33;;
14554;SDS011;7364;50.870;4.722;2023-04-24T00:44:01;16.53;;;9.87;;
14554;SDS011;7364;50.870;4.722;2023-04-24T00:46:29;18.50;;;11.13;;
14554;SDS011;7364;50.870;4.722;2023-04-24T00:48:57;17.27;;;11.57;;
14554;SDS011;7364;50.870;4.722;2023-04-24T00:51:26;17.10;;;10.90;;
14554;SDS011;7364;50.870;4.722;2023-04-24T00:53:53;17.87;;;11.17;;
14554;SDS011;7364;50.870;4.722;2023-04-24T00:56:22;13.80;;;10.60;;
14554;SDS011;7364;50.870;4.722;2023-04-24T00:58:49;17.47;;;11.40;;
14554;SDS011;7364;50.870;4.722;2023-04-24T01:01:17;16.30;;;12.10;;
14554;SDS011;7364;50.870;4.722;2023-04-24T01:03:46;13.33;;;11.20;;
14554;SDS011;7364;50.870;4.722;2023-04-24T01:06:13;17.93;;;10.97;;
14554;SDS011;7364;50.870;4.722;2023-04-24T01:08:41;11.93;;;9.97;;
14554;SDS011;7364;50.870;4.722;2023-04-24T01:11:08;15.33;;;11.20;;
14554;SDS011;7364;50.870;4.722;2023-04-24T01:13:37;14.20;;;10.30;;
14554;SDS011;7364;50.870;4.722;2023-04-24T01:16:04;14.20;;;10.47;;
14554;SDS011;7364;50.870;4.722;2023-04-24T01:18:32;16.70;;;10.10;;
14554;SDS011;7364;50.870;4.722;2023-04-24T01:20:59;19.70;;;11.53;;
14554;SDS011;7364;50.870;4.722;2023-04-24T01:23:32;19.80;;;11.37;;
14554;SDS011;7364;50.870;4.722;2023-04-24T01:26:02;14.40;;;10.50;;
14554;SDS011;7364;50.870;4.722;2023-04-24T01:28:30;13.60;;;10.03;;
14554;SDS011;7364;50.870;4.722;2023-04-24T01:30:58;15.27;;;10.80;;
14554;SDS011;7364;50.870;4.722;2023-04-24T01:33:25;18.27;;;10.40;;
14554;SDS011;7364;50.870;4.722;2023-04-24T01:35:53;18.97;;;10.53;;
14554;SDS011;7364;50.870;4.722;2023-04-24T01:38:21;14.90;;;8.87;;
14554;SDS011;7364;50.870;4.722;2023-04-24T01:40:50;10.07;;;8.83;;
14554;SDS011;7364;50.870;4.722;2023-04-24T01:43:18;15.80;;;9.10;;
14554;SDS011;7364;50.870;4.722;2023-04-24T01:45:46;15.70;;;9.90;;
14554;SDS011;7364;50.870;4.722;2023-04-24T01:48:13;15.83;;;9.97;;
14554;SDS011;7364;50.870;4.722;2023-04-24T01:50:40;14.23;;;10.00;;
14554;SDS011;7364;50.870;4.722;2023-04-24T01:53:08;11.57;;;9.40;;
14554;SDS011;7364;50.870;4.722;2023-04-24T01:55:35;15.73;;;9.60;;
14554;SDS011;7364;50.870;4.722;2023-04-24T01:58:04;14.43;;;9.50;;
14554;SDS011;7364;50.870;4.722;2023-04-24T02:00:31;11.60;;;8.67;;
14554;SDS011;7364;50.870;4.722;2023-04-24T02:02:59;13.00;;;9.30;;
14554;SDS011;7364;50.870;4.722;2023-04-24T02:05:27;16.20;;;8.97;;
14554;SDS011;7364;50.870;4.722;2023-04-24T02:07:54;12.27;;;8.77;;
14554;SDS011;7364;50.870;4.722;2023-04-24T02:10:21;13.77;;;10.43;;
14554;SDS011;7364;50.870;4.722;2023-04-24T02:12:50;13.73;;;9.33;;
14554;SDS011;7364;50.870;4.722;2023-04-24T02:15:22;13.70;;;9.63;;
14554;SDS011;7364;50.870;4.722;2023-04-24T02:17:49;12.17;;;9.53;;
14554;SDS011;7364;50.870;4.722;2023-04-24T02:20:17;11.23;;;9.43;;
14554;SDS011;7364;50.870;4.722;2023-04-24T02:22:44;17.13;;;10.70;;
14554;SDS011;7364;50.870;4.722;2023-04-24T02:25:11;20.17;;;10.47;;
14554;SDS011;7364;50.870;4.722;2023-04-24T02:27:39;16.77;;;10.50;;
14554;SDS011;7364;50.870;4.722;2023-04-24T02:30:07;14.03;;;10.47;;
14554;SDS011;7364;50.870;4.722;2023-04-24T02:32:39;14.07;;;10.30;;
14554;SDS011;7364;50.870;4.722;2023-04-24T02:35:06;14.87;;;10.03;;
14554;SDS011;7364;50.870;4.722;2023-04-24T02:37:34;15.03;;;10.80;;
14554;SDS011;7364;50.870;4.722;2023-04-24T02:40:01;12.73;;;10.63;;
14554;SDS011;7364;50.870;4.722;2023-04-24T02:42:30;11.53;;;10.17;;
14554;SDS011;7364;50.870;4.722;2023-04-24T02:44:58;19.77;;;12.10;;
14554;SDS011;7364;50.870;4.722;2023-04-24T02:47:26;14.87;;;11.57;;
14554;SDS011;7364;50.870;4.722;2023-04-24T02:49:54;16.80;;;11.23;;
14554;SDS011;7364;50.870;4.722;2023-04-24T02:52:22;14.30;;;11.47;;
14554;SDS011;7364;50.870;4.722;2023-04-24T02:54:49;14.03;;;10.50;;
14554;SDS011;7364;50.870;4.722;2023-04-24T02:57:16;12.97;;;11.00;;
14554;SDS011;7364;50.870;4.722;2023-04-24T02:59:44;13.37;;;10.63;;
14554;SDS011;7364;50.870;4.722;2023-04-24T03:02:11;15.10;;;10.83;;
14554;SDS011;7364;50.870;4.722;2023-04-24T03:04:38;13.87;;;10.20;;
14554;SDS011;7364;50.870;4.722;2023-04-24T03:07:09;14.37;;;12.33;;
14554;SDS011;7364;50.870;4.722;2023-04-24T03:09:37;11.93;;;9.30;;
14554;SDS011;7364;50.870;4.722;2023-04-24T03:12:04;18.87;;;11.37;;
14554;SDS011;7364;50.870;4.722;2023-04-24T03:14:32;17.03;;;12.40;;
14554;SDS011;7364;50.870;4.722;2023-04-24T03:16:59;13.87;;;10.57;;
14554;SDS011;7364;50.870;4.722;2023-04-24T03:19:27;11.97;;;10.10;;
14554;SDS011;7364;50.870;4.722;2023-04-24T03:21:54;16.27;;;10.80;;
14554;SDS011;7364;50.870;4.722;2023-04-24T03:24:23;13.63;;;10.47;;
14554;SDS011;7364;50.870;4.722;2023-04-24T03:26:53;14.63;;;9.70;;
14554;SDS011;7364;50.870;4.722;2023-04-24T03:29:22;12.60;;;9.50;;
14554;SDS011;7364;50.870;4.722;2023-04-24T03:31:49;15.93;;;10.07;;
14554;SDS011;7364;50.870;4.722;2023-04-24T03:34:16;13.07;;;9.50;;
14554;SDS011;7364;50.870;4.722;2023-04-24T03:36:44;12.67;;;9.83;;
14554;SDS011;7364;50.870;4.722;2023-04-24T03:39:12;10.50;;;9.23;;
14554;SDS011;7364;50.870;4.722;2023-04-24T03:41:41;12.00;;;9.90;;
14554;SDS011;7364;50.870;4.722;2023-04-24T03:44:08;12.60;;;9.83;;
14554;SDS011;7364;50.870;4.722;2023-04-24T03:46:36;14.33;;;9.47;;
14554;SDS011;7364;50.870;4.722;2023-04-24T03:49:03;11.43;;;9.00;;
14554;SDS011;7364;50.870;4.722;2023-04-24T03:51:31;13.03;;;9.77;;
14554;SDS011;7364;50.870;4.722;2023-04-24T03:53:58;11.87;;;9.53;;
14554;SDS011;7364;50.870;4.722;2023-04-24T03:56:25;11.60;;;9.17;;
14554;SDS011;7364;50.870;4.722;2023-04-24T03:58:54;12.67;;;9.83;;
14554;SDS011;7364;50.870;4.722;2023-04-24T04:01:22;13.83;;;10.80;;
14554;SDS011;7364;50.870;4.722;2023-04-24T04:03:49;14.10;;;9.80;;
14554;SDS011;7364;50.870;4.722;2023-04-24T04:06:16;10.70;;;7.33;;
14554;SDS011;7364;50.870;4.722;2023-04-24T04:08:44;11.03;;;7.80;;
14554;SDS011;7364;50.870;4.722;2023-04-24T04:11:12;9.37;;;7.17;;
14554;SDS011;7364;50.870;4.722;2023-04-24T04:13:39;9.20;;;7.33;;
14554;SDS011;7364;50.870;4.722;2023-04-24T04:16:08;9.13;;;7.13;;
14554;SDS011;7364;50.870;4.722;2023-04-24T04:18:35;11.67;;;8.17;;
14554;SDS011;7364;50.870;4.722;2023-04-24T04:21:02;9.57;;;7.93;;
14554;SDS011;7364;50.870;4.722;2023-04-24T04:23:30;11.07;;;7.17;;
14554;SDS011;7364;50.870;4.722;2023-04-24T04:25:57;9.47;;;6.90;;
14554;SDS011;7364;50.870;4.722;2023-04-24T04:28:25;6.27;;;5.67;;
14554;SDS011;7364;50.870;4.722;2023-04-24T04:30:52;7.77;;;5.97;;
14554;SDS011;7364;50.870;4.722;2023-04-24T04:33:21;8.73;;;6.80;;
14554;SDS011;7364;50.870;4.722;2023-04-24T04:35:49;10.40;;;6.90;;
14554;SDS011;7364;50.870;4.722;2023-04-24T04:38:17;8.17;;;6.60;;
14554;SDS011;7364;50.870;4.722;2023-04-24T04:40:45;6.37;;;5.70;;
14554;SDS011;7364;50.870;4.722;2023-04-24T04:43:12;7.90;;;6.97;;
14554;SDS011;7364;50.870;4.722;2023-04-24T04:45:40;7.70;;;6.33;;
14554;SDS011;7364;50.870;4.722;2023-04-24T04:48:08;7.23;;;6.53;;
14554;SDS011;7364;50.870;4.722;2023-04-24T04:50:39;8.07;;;6.60;;
14554;SDS011;7364;50.870;4.722;2023-04-24T04:53:06;10.00;;;7.70;;
14554;SDS011;7364;50.870;4.722;2023-04-24T04:55:34;7.00;;;5.47;;
14554;SDS011;7364;50.870;4.722;2023-04-24T04:58:01;10.40;;;6.00;;
14554;SDS011;7364;50.870;4.722;2023-04-24T05:00:28;9.17;;;6.57;;
14554;SDS011;7364;50.870;4.722;2023-04-24T05:03:01;6.07;;;5.07;;
14554;SDS011;7364;50.870;4.722;2023-04-24T05:05:28;7.93;;;5.70;;
14554;SDS011;7364;50.870;4.722;2023-04-24T05:08:07;9.37;;;6.87;;
14554;SDS011;7364;50.870;4.722;2023-04-24T05:10:35;11.23;;;8.77;;
14554;SDS011;7364;50.870;4.722;2023-04-24T05:13:02;17.10;;;9.37;;
14554;SDS011;7364;50.870;4.722;2023-04-24T05:15:30;11.77;;;8.17;;
14554;SDS011;7364;50.870;4.722;2023-04-24T05:17:57;15.63;;;10.40;;
14554;SDS011;7364;50.870;4.722;2023-04-24T05:20:24;12.73;;;10.13;;
14554;SDS011;7364;50.870;4.722;2023-04-24T05:22:52;15.03;;;8.90;;
14554;SDS011;7364;50.870;4.722;2023-04-24T05:25:21;15.63;;;11.07;;
14554;SDS011;7364;50.870;4.722;2023-04-24T05:27:48;16.90;;;10.77;;
14554;SDS011;7364;50.870;4.722;2023-04-24T05:30:15;17.13;;;11.93;;
14554;SDS011;7364;50.870;4.722;2023-04-24T05:32:42;17.53;;;10.10;;
14554;SDS011;7364;50.870;4.722;2023-04-24T05:35:11;16.90;;;11.97;;
14554;SDS011;7364;50.870;4.722;2023-04-24T05:37:38;13.23;;;11.23;;
14554;SDS011;7364;50.870;4.722;2023-04-24T05:40:06;14.30;;;11.17;;
14554;SDS011;7364;50.870;4.722;2023-04-24T05:42:35;15.73;;;10.33;;
14554;SDS011;7364;50.870;4.722;2023-04-24T05:45:03;14.37;;;9.93;;
14554;SDS011;7364;50.870;4.722;2023-04-24T05:47:31;16.47;;;12.03;;
14554;SDS011;7364;50.870;4.722;2023-04-24T05:49:58;17.57;;;11.87;;
14554;SDS011;7364;50.870;4.722;2023-04-24T05:52:25;19.87;;;11.50;;
14554;SDS011;7364;50.870;4.722;2023-04-24T05:54:52;19.17;;;11.87;;
14554;SDS011;7364;50.870;4.722;2023-04-24T05:57:20;17.10;;;12.30;;
14554;SDS011;7364;50.870;4.722;2023-04-24T05:59:49;18.10;;;13.30;;
14554;SDS011;7364;50.870;4.722;2023-04-24T06:02:16;17.83;;;11.60;;
14554;SDS011;7364;50.870;4.722;2023-04-24T06:04:44;21.43;;;13.20;;
14554;SDS011;7364;50.870;4.722;2023-04-24T06:07:12;23.17;;;13.70;;
14554;SDS011;7364;50.870;4.722;2023-04-24T06:09:39;21.00;;;13.93;;
14554;SDS011;7364;50.870;4.722;2023-04-24T06:12:06;16.53;;;13.70;;
14554;SDS011;7364;50.870;4.722;2023-04-24T06:14:35;19.50;;;15.10;;
14554;SDS011;7364;50.870;4.722;2023-04-24T06:17:06;21.10;;;14.67;;
14554;SDS011;7364;50.870;4.722;2023-04-24T06:19:33;18.97;;;14.70;;
14554;SDS011;7364;50.870;4.722;2023-04-24T06:22:01;21.73;;;14.03;;
14554;SDS011;7364;50.870;4.722;2023-04-24T06:24:33;22.47;;;14.37;;
14554;SDS011;7364;50.870;4.722;2023-04-24T06:27:00;21.53;;;16.93;;
14554;SDS011;7364;50.870;4.722;2023-04-24T06:29:27;22.23;;;16.67;;
14554;SDS011;7364;50.870;4.722;2023-04-24T06:31:55;35.27;;;18.10;;
14554;SDS011;7364;50.870;4.722;2023-04-24T06:34:23;24.80;;;15.40;;
14554;SDS011;7364;50.870;4.722;2023-04-24T06:36:50;23.10;;;17.07;;
14554;SDS011;7364;50.870;4.722;2023-04-24T06:39:18;22.27;;;16.23;;
14554;SDS011;7364;50.870;4.722;2023-04-24T06:41:45;25.20;;;16.63;;
14554;SDS011;7364;50.870;4.722;2023-04-24T06:44:12;23.27;;;14.77;;
14554;SDS011;7364;50.870;4.722;2023-04-24T06:46:40;26.20;;;17.10;;
14554;SDS011;7364;50.870;4.722;2023-04-24T06:49:07;25.50;;;17.97;;
14554;SDS011;7364;50.870;4.722;2023-04-24T06:51:36;20.73;;;15.80;;
14554;SDS011;7364;50.870;4.722;2023-04-24T06:54:03;29.20;;;16.53;;
14554;SDS011;7364;50.870;4.722;2023-04-24T06:56:31;24.63;;;16.27;;
14554;SDS011;7364;50.870;4.722;2023-04-24T06:58:59;20.33;;;15.27;;
14554;SDS011;7364;50.870;4.722;2023-04-24T07:01:26;22.93;;;17.33;;
14554;SDS011;7364;50.870;4.722;2023-04-24T07:03:54;27.97;;;17.27;;
14554;SDS011;7364;50.870;4.722;2023-04-24T07:06:21;26.43;;;17.80;;
14554;SDS011;7364;50.870;4.722;2023-04-24T07:08:51;33.60;;;18.57;;
14554;SDS011;7364;50.870;4.722;2023-04-24T07:11:18;38.03;;;19.87;;
14554;SDS011;7364;50.870;4.722;2023-04-24T07:13:46;30.87;;;19.20;;
14554;SDS011;7364;50.870;4.722;2023-04-24T07:16:13;25.77;;;18.73;;
14554;SDS011;7364;50.870;4.722;2023-04-24T07:18:40;31.23;;;20.97;;
14554;SDS011;7364;50.870;4.722;2023-04-24T07:21:08;25.00;;;15.90;;
14554;SDS011;7364;50.870;4.722;2023-04-24T07:23:35;22.37;;;17.77;;
14554;SDS011;7364;50.870;4.722;2023-04-24T07:26:04;27.17;;;19.10;;
14554;SDS011;7364;50.870;4.722;2023-04-24T07:28:31;28.17;;;18.60;;
14554;SDS011;7364;50.870;4.722;2023-04-24T07:30:59;28.00;;;19.83;;
14554;SDS011;7364;50.870;4.722;2023-04-24T07:33:26;23.33;;;17.27;;
14554;SDS011;7364;50.870;4.722;2023-04-24T07:35:53;28.07;;;19.30;;
14554;SDS011;7364;50.870;4.722;2023-04-24T07:38:21;28.53;;;18.43;;
14554;SDS011;7364;50.870;4.722;2023-04-24T07:40:53;34.13;;;20.53;;
14554;SDS011;7364;50.870;4.722;2023-04-24T07:43:22;27.83;;;19.03;;
14554;SDS011;7364;50.870;4.722;2023-04-24T07:45:49;27.70;;;18.97;;
14554;SDS011;7364;50.870;4.722;2023-04-24T07:48:17;29.53;;;17.03;;
14554;SDS011;7364;50.870;4.722;2023-04-24T07:50:47;24.73;;;16.17;;
14554;SDS011;7364;50.870;4.722;2023-04-24T07:53:14;24.97;;;16.67;;
14554;SDS011;7364;50.870;4.722;2023-04-24T07:55:41;34.10;;;18.57;;
14554;SDS011;7364;50.870;4.722;2023-04-24T07:58:11;25.37;;;16.53;;
14554;SDS011;7364;50.870;4.722;2023-04-24T08:00:40;30.63;;;16.20;;
14554;SDS011;7364;50.870;4.722;2023-04-24T08:03:07;26.63;;;15.87;;
14554;SDS011;7364;50.870;4.722;2023-04-24T08:05:34;20.07;;;14.77;;
14554;SDS011;7364;50.870;4.722;2023-04-24T08:08:02;22.37;;;13.77;;
14554;SDS011;7364;50.870;4.722;2023-04-24T08:10:29;19.40;;;14.43;;
14554;SDS011;7364;50.870;4.722;2023-04-24T08:12:56;20.97;;;14.53;;
14554;SDS011;7364;50.870;4.722;2023-04-24T08:15:24;24.57;;;13.87;;
14554;SDS011;7364;50.870;4.722;2023-04-24T08:17:52;23.47;;;15.07;;
14554;SDS011;7364;50.870;4.722;2023-04-24T08:20:20;21.30;;;14.23;;
14554;SDS011;7364;50.870;4.722;2023-04-24T08:22:47;21.77;;;12.77;;
14554;SDS011;7364;50.870;4.722;2023-04-24T08:25:14;16.83;;;11.63;;
14554;SDS011;7364;50.870;4.722;2023-04-24T08:27:42;23.80;;;12.50;;
14554;SDS011;7364;50.870;4.722;2023-04-24T08:30:10;16.93;;;11.50;;
14554;SDS011;7364;50.870;4.722;2023-04-24T08:32:37;16.87;;;9.63;;
14554;SDS011;7364;50.870;4.722;2023-04-24T08:35:06;17.60;;;11.90;;
14554;SDS011;7364;50.870;4.722;2023-04-24T08:37:35;18.53;;;11.17;;
14554;SDS011;7364;50.870;4.722;2023-04-24T08:40:03;15.57;;;11.87;;
14554;SDS011;7364;50.870;4.722;2023-04-24T08:42:37;21.27;;;11.70;;
14554;SDS011;7364;50.870;4.722;2023-04-24T08:45:06;20.00;;;12.17;;
14554;SDS011;7364;50.870;4.722;2023-04-24T08:47:35;15.87;;;11.73;;
14554;SDS011;7364;50.870;4.722;2023-04-24T08:50:06;18.37;;;12.53;;
14554;SDS011;7364;50.870;4.722;2023-04-24T08:52:35;22.93;;;12.33;;
14554;SDS011;7364;50.870;4.722;2023-04-24T08:55:02;18.70;;;11.70;;
14554;SDS011;7364;50.870;4.722;2023-04-24T08:57:30;15.90;;;9.67;;
14554;SDS011;7364;50.870;4.722;2023-04-24T08:59:58;18.40;;;10.27;;
14554;SDS011;7364;50.870;4.722;2023-04-24T09:02:27;17.60;;;9.60;;
14554;SDS011;7364;50.870;4.722;2023-04-24T09:04:55;17.37;;;8.63;;
14554;SDS011;7364;50.870;4.722;2023-04-24T09:07:25;12.80;;;9.07;;
14554;SDS011;7364;50.870;4.722;2023-04-24T09:09:57;14.07;;;7.90;;
14554;SDS011;7364;50.870;4.722;2023-04-24T09:12:25;17.93;;;8.70;;
14554;SDS011;7364;50.870;4.722;2023-04-24T09:14:52;14.23;;;6.93;;
14554;SDS011;7364;50.870;4.722;2023-04-24T09:17:21;13.07;;;7.27;;
14554;SDS011;7364;50.870;4.722;2023-04-24T09:19:49;13.87;;;7.87;;
14554;SDS011;7364;50.870;4.722;2023-04-24T09:22:16;12.93;;;7.00;;
14554;SDS011;7364;50.870;4.722;2023-04-24T09:24:46;9.73;;;5.50;;
14554;SDS011;7364;50.870;4.722;2023-04-24T09:27:15;15.47;;;6.73;;
14554;SDS011;7364;50.870;4.722;2023-04-24T09:29:53;9.93;;;5.03;;
14554;SDS011;7364;50.870;4.722;2023-04-24T09:32:21;6.73;;;4.90;;
14554;SDS011;7364;50.870;4.722;2023-04-24T09:35:04;13.00;;;6.17;;
14554;SDS011;7364;50.870;4.722;2023-04-24T09:37:35;12.13;;;5.87;;
14554;SDS011;7364;50.870;4.722;2023-04-24T09:40:12;8.00;;;5.70;;
14554;SDS011;7364;50.870;4.722;2023-04-24T09:42:43;12.47;;;6.13;;
14554;SDS011;7364;50.870;4.722;2023-04-24T09:45:13;14.10;;;6.03;;
14554;SDS011;7364;50.870;4.722;2023-04-24T09:47:41;6.63;;;4.83;;
14554;SDS011;7364;50.870;4.722;2023-04-24T09:50:09;13.80;;;5.73;;
14554;SDS011;7364;50.870;4.722;2023-04-24T09:52:39;8.07;;;5.00;;
14554;SDS011;7364;50.870;4.722;2023-04-24T09:55:15;8.40;;;4.87;;
14554;SDS011;7364;50.870;4.722;2023-04-24T09:57:48;7.03;;;4.43;;
14554;SDS011;7364;50.870;4.722;2023-04-24T10:00:23;10.50;;;4.40;;
14554;SDS011;7364;50.870;4.722;2023-04-24T10:02:58;8.13;;;4.60;;
14554;SDS011;7364;50.870;4.722;2023-04-24T10:05:27;13.27;;;4.90;;
14554;SDS011;7364;50.870;4.722;2023-04-24T10:07:56;5.93;;;3.90;;
14554;SDS011;7364;50.870;4.722;2023-04-24T10:10:28;10.63;;;4.23;;
14554;SDS011;7364;50.870;4.722;2023-04-24T10:12:55;6.90;;;3.83;;
14554;SDS011;7364;50.870;4.722;2023-04-24T10:15:23;10.90;;;4.20;;
14554;SDS011;7364;50.870;4.722;2023-04-24T10:17:52;6.67;;;4.20;;
14554;SDS011;7364;50.870;4.722;2023-04-24T10:20:20;6.17;;;3.63;;
14554;SDS011;7364;50.870;4.722;2023-04-24T10:22:49;7.23;;;3.33;;
14554;SDS011;7364;50.870;4.722;2023-04-24T10:25:18;4.83;;;3.23;;
14554;SDS011;7364;50.870;4.722;2023-04-24T10:27:49;7.80;;;3.97;;
14554;SDS011;7364;50.870;4.722;2023-04-24T10:30:17;10.13;;;4.57;;
14554;SDS011;7364;50.870;4.722;2023-04-24T10:32:45;10.20;;;4.70;;
14554;SDS011;7364;50.870;4.722;2023-04-24T10:35:13;5.07;;;3.23;;
14554;SDS011;7364;50.870;4.722;2023-04-24T10:37:43;7.47;;;3.47;;
14554;SDS011;7364;50.870;4.722;2023-04-24T10:40:12;5.73;;;3.67;;
14554;SDS011;7364;50.870;4.722;2023-04-24T10:42:47;6.20;;;3.97;;
14554;SDS011;7364;50.870;4.722;2023-04-24T10:45:19;6.13;;;3.63;;
14554;SDS011;7364;50.870;4.722;2023-04-24T10:47:51;7.30;;;3.90;;
14554;SDS011;7364;50.870;4.722;2023-04-24T10:50:19;7.13;;;3.83;;
14554;SDS011;7364;50.870;4.722;2023-04-24T10:52:47;8.53;;;4.03;;
14554;SDS011;7364;50.870;4.722;2023-04-24T10:55:16;8.10;;;3.80;;
14554;SDS011;7364;50.870;4.722;2023-04-24T10:58:05;5.83;;;3.77;;
14554;SDS011;7364;50.870;4.722;2023-04-24T11:00:33;8.97;;;4.30;;
14554;SDS011;7364;50.870;4.722;2023-04-24T11:03:04;6.60;;;3.73;;
14554;SDS011;7364;50.870;4.722;2023-04-24T11:05:51;6.90;;;3.77;;
14554;SDS011;7364;50.870;4.722;2023-04-24T11:08:23;7.67;;;3.10;;
14554;SDS011;7364;50.870;4.722;2023-04-24T11:10:59;6.83;;;3.57;;
14554;SDS011;7364;50.870;4.722;2023-04-24T11:16:43;9.00;;;4.33;;
14554;SDS011;7364;50.870;4.722;2023-04-24T11:19:17;6.10;;;3.63;;
14554;SDS011;7364;50.870;4.722;2023-04-24T11:21:47;6.93;;;3.47;;
14554;SDS011;7364;50.870;4.722;2023-04-24T11:24:24;7.23;;;3.93;;
14554;SDS011;7364;50.870;4.722;2023-04-24T11:26:56;8.70;;;4.60;;
14554;SDS011;7364;50.870;4.722;2023-04-24T11:29:41;8.03;;;3.80;;
14554;SDS011;7364;50.870;4.722;2023-04-24T11:32:23;7.33;;;4.33;;
14554;SDS011;7364;50.870;4.722;2023-04-24T11:34:52;7.23;;;4.10;;
14554;SDS011;7364;50.870;4.722;2023-04-24T11:37:21;5.43;;;3.67;;
14554;SDS011;7364;50.870;4.722;2023-04-24T11:39:50;7.80;;;4.60;;
14554;SDS011;7364;50.870;4.722;2023-04-24T11:42:18;5.63;;;3.33;;
14554;SDS011;7364;50.870;4.722;2023-04-24T11:44:47;5.83;;;3.23;;
14554;SDS011;7364;50.870;4.722;2023-04-24T11:47:15;5.20;;;3.40;;
14554;SDS011;7364;50.870;4.722;2023-04-24T11:49:44;7.33;;;3.70;;
14554;SDS011;7364;50.870;4.722;2023-04-24T11:52:14;7.33;;;3.97;;
14554;SDS011;7364;50.870;4.722;2023-04-24T11:54:47;10.67;;;4.40;;
14554;SDS011;7364;50.870;4.722;2023-04-24T11:57:15;4.50;;;3.50;;
14554;SDS011;7364;50.870;4.722;2023-04-24T11:59:42;6.57;;;3.70;;
14554;SDS011;7364;50.870;4.722;2023-04-24T12:02:19;7.37;;;4.70;;
14554;SDS011;7364;50.870;4.722;2023-04-24T12:04:49;5.40;;;4.17;;
14554;SDS011;7364;50.870;4.722;2023-04-24T12:07:17;5.00;;;3.37;;
14554;SDS011;7364;50.870;4.722;2023-04-24T12:09:45;6.80;;;3.27;;
14554;SDS011;7364;50.870;4.722;2023-04-24T12:12:15;8.00;;;4.40;;
14554;SDS011;7364;50.870;4.722;2023-04-24T12:14:44;7.17;;;3.93;;
14554;SDS011;7364;50.870;4.722;2023-04-24T12:17:16;9.43;;;4.20;;
14554;SDS011;7364;50.870;4.722;2023-04-24T12:19:46;5.87;;;4.10;;
14554;SDS011;7364;50.870;4.722;2023-04-24T12:22:16;7.70;;;3.97;;
14554;SDS011;7364;50.870;4.722;2023-04-24T12:24:56;10.43;;;4.33;;
14554;SDS011;7364;50.870;4.722;2023-04-24T12:27:30;8.43;;;4.10;;
14554;SDS011;7364;50.870;4.722;2023-04-24T12:29:59;4.97;;;3.87;;
14554;SDS011;7364;50.870;4.722;2023-04-24T12:32:27;9.17;;;3.73;;
14554;SDS011;7364;50.870;4.722;2023-04-24T12:34:56;6.83;;;4.03;;
14554;SDS011;7364;50.870;4.722;2023-04-24T12:37:24;8.97;;;4.17;;
14554;SDS011;7364;50.870;4.722;2023-04-24T12:39:59;5.70;;;4.00;;
14554;SDS011;7364;50.870;4.722;2023-04-24T12:42:28;5.87;;;3.70;;
14554;SDS011;7364;50.870;4.722;2023-04-24T12:44:56;7.87;;;4.83;;
14554;SDS011;7364;50.870;4.722;2023-04-24T12:47:25;7.83;;;3.90;;
14554;SDS011;7364;50.870;4.722;2023-04-24T12:49:53;4.87;;;3.30;;
14554;SDS011;7364;50.870;4.722;2023-04-24T12:52:22;9.53;;;3.90;;
14554;SDS011;7364;50.870;4.722;2023-04-24T12:54:52;6.33;;;3.73;;
14554;SDS011;7364;50.870;4.722;2023-04-24T12:57:23;8.53;;;3.83;;
14554;SDS011;7364;50.870;4.722;2023-04-24T12:59:53;4.67;;;3.33;;
14554;SDS011;7364;50.870;4.722;2023-04-24T13:02:21;3.60;;;2.93;;
14554;SDS011;7364;50.870;4.722;2023-04-24T13:04:49;6.00;;;3.70;;
14554;SDS011;7364;50.870;4.722;2023-04-24T13:07:16;3.77;;;2.87;;
14554;SDS011;7364;50.870;4.722;2023-04-24T13:09:45;6.90;;;4.33;;
14554;SDS011;7364;50.870;4.722;2023-04-24T13:12:14;5.90;;;3.30;;
14554;SDS011;7364;50.870;4.722;2023-04-24T13:14:41;5.87;;;3.37;;
14554;SDS011;7364;50.870;4.722;2023-04-24T13:17:08;4.43;;;2.77;;
14554;SDS011;7364;50.870;4.722;2023-04-24T13:19:37;4.90;;;3.07;;
14554;SDS011;7364;50.870;4.722;2023-04-24T13:22:05;5.77;;;3.90;;
14554;SDS011;7364;50.870;4.722;2023-04-24T13:24:33;4.97;;;3.90;;
14554;SDS011;7364;50.870;4.722;2023-04-24T13:27:01;4.57;;;3.60;;
14554;SDS011;7364;50.870;4.722;2023-04-24T13:29:29;6.03;;;3.10;;
14554;SDS011;7364;50.870;4.722;2023-04-24T13:32:00;8.33;;;3.60;;
14554;SDS011;7364;50.870;4.722;2023-04-24T13:34:27;6.43;;;3.83;;
14554;SDS011;7364;50.870;4.722;2023-04-24T13:36:55;5.57;;;2.93;;
14554;SDS011;7364;50.870;4.722;2023-04-24T13:39:24;5.23;;;3.20;;
14554;SDS011;7364;50.870;4.722;2023-04-24T13:41:51;7.17;;;3.30;;
14554;SDS011;7364;50.870;4.722;2023-04-24T13:44:21;6.47;;;3.77;;
14554;SDS011;7364;50.870;4.722;2023-04-24T13:46:49;3.93;;;3.00;;
14554;SDS011;7364;50.870;4.722;2023-04-24T13:49:19;3.63;;;2.10;;
14554;SDS011;7364;50.870;4.722;2023-04-24T13:51:47;3.33;;;1.90;;
14554;SDS011;7364;50.870;4.722;2023-04-24T13:54:14;3.50;;;2.27;;
14554;SDS011;7364;50.870;4.722;2023-04-24T13:56:41;4.13;;;2.60;;
14554;SDS011;7364;50.870;4.722;2023-04-24T13:59:09;4.10;;;2.40;;
14554;SDS011;7364;50.870;4.722;2023-04-24T14:01:40;4.27;;;2.50;;
14554;SDS011;7364;50.870;4.722;2023-04-24T14:04:07;2.87;;;2.13;;
14554;SDS011;7364;50.870;4.722;2023-04-24T14:06:34;3.90;;;2.60;;
14554;SDS011;7364;50.870;4.722;2023-04-24T14:09:02;8.43;;;3.07;;
14554;SDS011;7364;50.870;4.722;2023-04-24T14:11:29;5.37;;;3.10;;
14554;SDS011;7364;50.870;4.722;2023-04-24T14:13:56;9.63;;;3.40;;
14554;SDS011;7364;50.870;4.722;2023-04-24T14:16:24;5.87;;;3.30;;
14554;SDS011;7364;50.870;4.722;2023-04-24T14:19:03;5.93;;;3.03;;
14554;SDS011;7364;50.870;4.722;2023-04-24T14:21:35;5.33;;;2.80;;
14554;SDS011;7364;50.870;4.722;2023-04-24T14:24:03;3.53;;;2.60;;
14554;SDS011;7364;50.870;4.722;2023-04-24T14:26:35;6.27;;;3.67;;
14554;SDS011;7364;50.870;4.722;2023-04-24T14:29:05;7.30;;;2.83;;
14554;SDS011;7364;50.870;4.722;2023-04-24T14:31:32;4.93;;;2.83;;
14554;SDS011;7364;50.870;4.722;2023-04-24T14:34:01;5.97;;;2.27;;
14554;SDS011;7364;50.870;4.722;2023-04-24T14:36:29;4.73;;;2.43;;
14554;SDS011;7364;50.870;4.722;2023-04-24T14:38:56;4.00;;;2.37;;
14554;SDS011;7364;50.870;4.722;2023-04-24T14:41:24;4.37;;;2.30;;
14554;SDS011;7364;50.870;4.722;2023-04-24T14:43:51;4.07;;;2.40;;
14554;SDS011;7364;50.870;4.722;2023-04-24T14:46:18;5.50;;;2.53;;
14554;SDS011;7364;50.870;4.722;2023-04-24T14:48:46;3.80;;;1.90;;
14554;SDS011;7364;50.870;4.722;2023-04-24T14:51:14;3.03;;;2.13;;
14554;SDS011;7364;50.870;4.722;2023-04-24T14:53:42;4.03;;;1.90;;
14554;SDS011;7364;50.870;4.722;2023-04-24T14:56:11;6.70;;;2.57;;
14554;SDS011;7364;50.870;4.722;2023-04-24T14:58:39;7.17;;;2.30;;
14554;SDS011;7364;50.870;4.722;2023-04-24T15:01:06;5.20;;;2.60;;